Airfield :
LOGIN :

Register | Disclaimer

   EN    FR    IT 

 










Legend :    VFR   Marginal VFR   IFR   Intensive IFR   Very Intensive IFR
Visi :
Ceiling :
>= 8 km
>= 3000ft
5 to 8 km
1000 to 3000 ft
1500m to 5 km
500 to 1000 ft
800 to 1500m
200 to 500 ft
< 800m
< 200 ft
Symbols :   Thunderstorms  Fog  Heavy snow  Heavy precipitations  Wind > 20 kt
SIGMETs :     Misc.  Thunderstorms  Icing  Turbulence  Mountain Waves  Volcanic Ashes







- Airport Elevation : 197 ft
- IATA code : XOG
- Download approach charts


LFMO - Orange

CURRENT METAR :
  • 222000Z AUTO 34014KT CAVOK 26/11 Q1012 BECMG 35015G25KT

EXPIRED METARs :
  • 221930Z AUTO 34016KT CAVOK 26/11 Q1011 BECMG 35015G25KT
  • 221900Z AUTO 34017KT CAVOK 27/11 Q1011 BECMG 35015G25KT
  • 221830Z AUTO 35020KT CAVOK 28/10 Q1011 BECMG 35015G25KT
  • 221800Z AUTO 35020G31KT CAVOK 28/09 Q1010 NOSIG
  • 221730Z AUTO 36020KT CAVOK 29/09 Q1010 BECMG 35015G25KT

TAF TAF LFMO
Valid from the 22 at 15:00 until the 23 at 15:00 UTC


221400Z 2215/2315 35015G25KT CAVOK
TEMPO 2313/2315 35020G35KT
No reported NOTAMs for that airfield.
1 SIGMET reported for the Marseille FIR (LFMM) :
 
Embedded thunderstorms
LFMM SIGMET 4 VALID 222000/222100 LFPW
LFMM MARSEILLE FIR/UIR EMBD TS OBS AT 2000Z WI N4315 E00715 - N4245 E00715 - N4300 E00545 - N4330 E00545 - N4315 E00715 TOP FL350 STNR WKN=



MET'MAP, your aeronautical weather chart ! - Copyright ORBIFLY December 2007 - Disclaimer

ORBIFLY MET'MAP TEAM :

Programming & Development : Alexandra Zaïnal
Concept & Development : Baudouin d'Aumeries
Co-Development & Prog : Marc-Olivier Méhu
Technical & hardware support : Manuel Goepfert

Contact : metmap@orbifly.com




SOURCES & CREDITS :

   NOAA